21:35
Airports
History
Links
Donate
Help keep this website running!
PayPal
Bitcoin
This page is community maintained. The information is intended for PC simulator navigation or reference.
Always use approved charts for navigation.
NTTE
Tetiaroa
Tetiaroa (NTTE)
Leeward Islands, French Polynesia
(U)
Lat/Lng:17° 0' 36" S / 149° 36' 36" W
-17.01 / -149.610001
ID / ICAO:NTTE
Runways:1
Longest:07-25
Concrete 756m / 2,482ft
Nearby Weather21:30 GMT 2018-01-17
Nearby weather at NTAA, Faaa located 37.6 nautical miles from NTTE
Altimeter: 29.91
Visibility: 6.2 statute miles
Wind: 7 knots (from 070°)
Temp: 27°c / 81°f
Humidity: 78.8%

METAR: NTAA 172130Z 07007KT 040V100 9999 -SHRA SCT020 SCT053 27/23 Q1013 NOSIG

(Powered by phpweather)
Runway 07 / 25
Dimensions:756.4 x 20.1m 2482' x 66'ft
Surface:Concrete
Runway 07 [A]Runway 25 [B]
Heading:072°TH 252°TH
Lat:
Lng:
17° 0' 39.8"S
149° 36' 48.24"W
17° 0' 32.2"S
149° 36' 23.77"W
User Notes and Comments
17° 0' 36" S / 149° 36' 36" W
Distance To
Airport ID:
Nearby Airports
(C) Moorea 34.6 NM
NTTM SSW 196°
(C) Faaa 37.6 NM
NTAA ( WX ) S 179°
(C) Huahine 96.0 NM
NTTH WNW 283°
(C) Raiatea 124.3 NM
NTTR W 279°
(C) Bora Bora 147.0 NM
NTTB ( WX ) WNW 285°
(U) MATAIVA 159.4 NM
NTGV NNE 21°
(U) TIKEHAU 159.5 NM
NTGC NE 35°
VFR Chart
Flight Planning at SkyVector.com